createdAt,value
2022-09-04T00:02:15.886Z,100802.97
2022-09-04T00:05:24.497Z,100811.50
2022-09-04T00:08:03.077Z,100804.59
2022-09-04T00:10:45.991Z,100811.94
2022-09-04T00:13:26.216Z,100822.03
2022-09-04T00:16:01.110Z,100819.19
2022-09-04T00:18:33.722Z,100816.78
2022-09-04T00:21:12.340Z,100824.88
2022-09-04T00:23:50.498Z,100822.91
2022-09-04T00:26:38.515Z,100824.91
2022-09-04T00:29:49.907Z,100827.34
2022-09-04T00:32:54.912Z,100825.34
2022-09-04T00:35:55.284Z,100832.25
2022-09-04T00:38:33.542Z,100828.56
2022-09-04T00:41:21.670Z,100826.97
2022-09-04T00:44:07.543Z,100825.38
2022-09-04T00:47:05.213Z,100835.09
2022-09-04T00:49:47.606Z,100833.06
2022-09-04T00:52:36.915Z,100841.97
2022-09-04T00:55:40.645Z,100844.00
2022-09-04T00:58:21.532Z,100847.22
2022-09-04T01:00:49.440Z,100837.53
2022-09-04T01:03:25.016Z,100847.25
2022-09-04T01:06:04.058Z,100841.59
2022-09-04T01:08:56.085Z,100849.28
2022-09-04T01:12:00.998Z,100844.88
2022-09-04T01:14:39.312Z,100844.44
2022-09-04T01:17:43.399Z,100855.38
2022-09-04T01:20:26.578Z,100855.00
2022-09-04T01:23:02.144Z,100860.66
2022-09-04T01:25:57.848Z,100850.94
2022-09-04T01:28:39.677Z,100853.78
2022-09-04T01:31:23.223Z,100849.75
2022-09-04T01:33:54.888Z,100847.75
2022-09-04T01:36:50.169Z,100855.44
2022-09-04T01:39:21.064Z,100855.00
2022-09-04T01:42:02.163Z,100843.69
2022-09-04T01:44:30.098Z,100852.59
2022-09-04T01:47:02.789Z,100844.13
2022-09-04T01:49:47.988Z,100859.88
2022-09-04T01:52:23.605Z,100861.88
2022-09-04T01:55:08.141Z,100860.25
2022-09-04T01:57:34.582Z,100858.22
2022-09-04T02:00:01.011Z,100851.38
2022-09-04T02:02:56.843Z,100854.22
2022-09-04T02:05:30.025Z,100855.03
2022-09-04T02:08:15.164Z,100859.06
2022-09-04T02:10:44.818Z,100866.75
2022-09-04T02:13:44.922Z,100868.78
2022-09-04T02:16:31.149Z,100870.78
2022-09-04T02:19:12.196Z,100871.63
2022-09-04T02:21:50.848Z,100864.38
2022-09-04T02:24:41.815Z,100877.69
2022-09-04T02:27:22.013Z,100874.06
2022-09-04T02:30:00.637Z,100874.06
2022-09-04T02:32:42.651Z,100874.88
2022-09-04T02:35:31.032Z,100878.53
2022-09-04T02:38:27.147Z,100880.94
2022-09-04T02:41:04.039Z,100884.97
2022-09-04T02:44:06.374Z,100884.16
2022-09-04T02:47:07.689Z,100893.47
2022-09-04T02:50:10.083Z,100888.19
2022-09-04T02:53:10.369Z,100892.66
2022-09-04T02:55:56.391Z,100891.84
2022-09-04T02:58:29.194Z,100894.66
2022-09-04T03:01:22.423Z,100899.91
2022-09-04T03:04:01.348Z,100902.34
2022-09-04T03:07:03.661Z,100901.06
2022-09-04T03:09:42.098Z,100903.09
2022-09-04T03:12:15.979Z,100906.72
2022-09-04T03:14:52.550Z,100909.97
2022-09-04T03:17:33.537Z,100911.16
2022-09-04T03:20:07.750Z,100917.22
2022-09-04T03:22:43.849Z,100920.03
2022-09-04T03:25:44.588Z,100926.06
2022-09-04T03:28:25.178Z,100932.13
2022-09-04T03:30:54.378Z,100929.69
2022-09-04T03:33:29.646Z,100930.50
2022-09-04T03:36:14.220Z,100929.69
2022-09-04T03:39:04.470Z,100929.28
2022-09-04T03:41:44.327Z,100928.03
2022-09-04T03:44:20.777Z,100924.84
2022-09-04T03:47:06.190Z,100927.22
2022-09-04T03:50:04.883Z,100927.63
2022-09-04T03:53:00.943Z,100924.41
2022-09-04T03:55:36.539Z,100925.63
2022-09-04T03:58:14.398Z,100925.63
2022-09-04T04:00:57.943Z,100931.63
2022-09-04T04:04:14.571Z,100937.28
2022-09-04T04:06:51.330Z,100937.28
2022-09-04T04:09:43.874Z,100939.69
2022-09-04T04:12:29.932Z,100944.91
2022-09-04T04:15:07.196Z,100941.28
2022-09-04T04:18:04.339Z,100944.06
2022-09-04T04:21:02.131Z,100943.69
2022-09-04T04:24:12.458Z,100946.47
2022-09-04T04:26:59.439Z,100945.28
2022-09-04T04:29:41.221Z,100945.66
2022-09-04T04:32:16.680Z,100952.09
2022-09-04T04:35:04.552Z,100954.06
2022-09-04T04:37:51.804Z,100950.44
2022-09-04T04:40:47.890Z,100960.09
2022-09-04T04:43:26.521Z,100957.66
2022-09-04T04:46:25.504Z,100961.66
2022-09-04T04:48:59.106Z,100962.09
2022-09-04T04:51:39.320Z,100964.47
2022-09-04T04:54:38.166Z,100974.94
2022-09-04T04:57:20.886Z,100975.34
2022-09-04T05:00:25.299Z,100975.34
2022-09-04T05:03:27.182Z,100978.56
2022-09-04T05:06:36.391Z,100985.84
2022-09-04T05:09:36.522Z,100991.47
2022-09-04T05:12:21.252Z,100982.22
2022-09-04T05:14:59.823Z,100992.31
2022-09-04T05:17:58.058Z,100993.50
2022-09-04T05:20:24.414Z,100999.59
2022-09-04T05:22:56.896Z,100999.63
2022-09-04T05:25:48.279Z,100997.97
2022-09-04T05:28:32.841Z,101004.00
2022-09-04T05:31:10.200Z,101014.91
2022-09-04T05:34:07.429Z,101017.72
2022-09-04T05:36:45.943Z,101024.63
2022-09-04T05:39:12.313Z,101023.00
2022-09-04T05:41:39.121Z,101031.50
2022-09-04T05:44:27.447Z,101029.09
2022-09-04T05:47:04.886Z,101029.09
2022-09-04T05:49:31.339Z,101048.09
2022-09-04T05:52:30.831Z,101044.44
2022-09-04T05:55:09.636Z,101048.09
2022-09-04T05:57:52.594Z,101051.31
2022-09-04T06:00:20.326Z,101046.91
2022-09-04T06:03:05.088Z,101061.44
2022-09-04T06:05:50.971Z,101054.59
2022-09-04T06:08:48.563Z,101056.66
2022-09-04T06:11:42.900Z,101070.81
2022-09-04T06:14:47.135Z,101068.84
2022-09-04T06:17:30.691Z,101068.47
2022-09-04T06:20:10.431Z,101069.72
2022-09-04T06:22:36.868Z,101070.97
2022-09-04T06:25:16.565Z,101069.81
2022-09-04T06:28:20.498Z,101080.72
2022-09-04T06:30:52.278Z,101083.16
2022-09-04T06:33:32.644Z,101083.97
2022-09-04T06:36:02.263Z,101077.94
2022-09-04T06:38:53.327Z,101084.00
2022-09-04T06:41:25.801Z,101072.72
2022-09-04T06:44:01.380Z,101075.56
2022-09-04T06:46:43.030Z,101077.97
2022-09-04T06:49:24.171Z,101084.47
2022-09-04T06:52:23.474Z,101075.56
2022-09-04T06:55:09.917Z,101081.19
2022-09-04T06:58:24.721Z,101082.38
2022-09-04T07:01:08.843Z,101080.34
2022-09-04T07:03:38.418Z,101078.28
2022-09-04T07:06:32.643Z,101078.72
2022-09-04T07:09:31.345Z,101081.13
2022-09-04T07:12:16.429Z,101080.66
2022-09-04T07:15:30.176Z,101085.88
2022-09-04T07:18:20.303Z,101092.28
2022-09-04T07:20:59.531Z,101095.47
2022-09-04T07:23:35.940Z,101096.66
2022-09-04T07:26:26.878Z,101103.91
2022-09-04T07:29:12.320Z,101105.81
2022-09-04T07:31:46.626Z,101106.94
2022-09-04T07:34:39.375Z,101097.97
2022-09-04T07:37:10.969Z,101100.28
2022-09-04T07:39:57.077Z,101095.38
2022-09-04T07:43:02.600Z,101100.81
2022-09-04T07:45:40.053Z,101104.88
2022-09-04T07:48:34.252Z,101110.47
2022-09-04T07:51:10.853Z,101113.44
2022-09-04T07:53:47.717Z,101113.06
2022-09-04T07:56:23.346Z,101115.28
2022-09-04T07:59:02.851Z,101115.44
2022-09-04T08:02:08.824Z,101117.00
2022-09-04T08:04:38.228Z,101123.16
2022-09-04T08:07:12.263Z,101127.19
2022-09-04T08:09:44.738Z,101125.47
2022-09-04T08:12:30.262Z,101133.22
2022-09-04T08:15:21.954Z,101133.50
2022-09-04T08:18:01.523Z,101135.16
2022-09-04T08:21:15.786Z,101141.63
2022-09-04T08:24:13.101Z,101142.44
2022-09-04T08:27:04.627Z,101140.44
2022-09-04T08:29:49.808Z,101142.38
2022-09-04T08:32:38.223Z,101142.84
2022-09-04T08:35:45.029Z,101135.28
2022-09-04T08:38:20.586Z,101137.84
2022-09-04T08:40:58.830Z,101144.31
2022-09-04T08:43:25.188Z,101138.69
2022-09-04T08:46:13.525Z,101143.00
2022-09-04T08:49:09.397Z,101142.13
2022-09-04T08:51:47.473Z,101144.88
2022-09-04T08:54:39.229Z,101151.66
2022-09-04T08:57:22.538Z,101145.72
2022-09-04T09:00:11.225Z,101151.69
2022-09-04T09:02:56.078Z,101153.22
2022-09-04T09:05:56.720Z,101145.00
2022-09-04T09:08:44.422Z,101151.75
2022-09-04T09:11:45.105Z,101149.22
2022-09-04T09:14:43.850Z,101153.13
2022-09-04T09:17:12.420Z,101147.72
2022-09-04T09:19:46.383Z,101149.00
2022-09-04T09:22:15.870Z,101149.69
2022-09-04T09:25:07.278Z,101154.84
2022-09-04T09:27:53.302Z,101146.00
2022-09-04T09:30:21.613Z,101149.91
2022-09-04T09:33:11.444Z,101147.38
2022-09-04T09:36:16.146Z,101153.78
2022-09-04T09:39:04.128Z,101146.69
2022-09-04T09:41:46.418Z,101142.06
2022-09-04T09:44:15.589Z,101139.09
2022-09-04T09:47:01.706Z,101144.94
2022-09-04T09:49:53.612Z,101141.28
2022-09-04T09:52:34.963Z,101142.41
2022-09-04T09:55:52.700Z,101144.50
2022-09-04T09:58:22.146Z,101137.69
2022-09-04T10:01:19.642Z,101141.03
2022-09-04T10:04:11.657Z,101128.09
2022-09-04T10:07:02.576Z,101141.63
2022-09-04T10:09:50.803Z,101133.47
2022-09-04T10:12:29.432Z,101137.97
2022-09-04T10:15:21.679Z,101133.47
2022-09-04T10:17:54.224Z,101137.50
2022-09-04T10:20:39.223Z,101132.09
2022-09-04T10:23:05.679Z,101139.66
2022-09-04T10:25:50.513Z,101146.06
2022-09-04T10:28:41.500Z,101138.47
2022-09-04T10:31:24.028Z,101134.53
2022-09-04T10:34:10.549Z,101136.47
2022-09-04T10:36:46.235Z,101133.94
2022-09-04T10:39:46.824Z,101143.31
2022-09-04T10:42:39.649Z,101137.19
2022-09-04T10:45:27.233Z,101143.56
2022-09-04T10:48:13.266Z,101140.56
2022-09-04T10:50:58.704Z,101133.09
2022-09-04T10:53:39.001Z,101139.84
2022-09-04T10:56:23.074Z,101143.97
2022-09-04T10:59:09.789Z,101134.91
2022-09-04T11:02:22.314Z,101132.69
2022-09-04T11:05:17.554Z,101130.03
2022-09-04T11:08:08.072Z,101133.44
2022-09-04T11:10:46.071Z,101130.28
2022-09-04T11:13:32.494Z,101133.81
2022-09-04T11:16:42.313Z,101130.03
2022-09-04T11:19:16.212Z,101124.81
2022-09-04T11:22:27.432Z,101125.97
2022-09-04T11:25:04.291Z,101124.06
2022-09-04T11:27:33.917Z,101122.78
2022-09-04T11:30:10.120Z,101125.22
2022-09-04T11:33:04.995Z,101122.94
2022-09-04T11:35:52.713Z,101114.66
2022-09-04T11:39:16.490Z,101122.78
2022-09-04T11:42:08.387Z,101127.25
2022-09-04T11:44:46.220Z,101125.66
2022-09-04T11:47:47.563Z,101125.66
2022-09-04T11:50:20.348Z,101129.19
2022-09-04T11:53:16.621Z,101121.53
2022-09-04T11:56:17.016Z,101119.78
2022-09-04T11:59:10.272Z,101118.88
2022-09-04T12:02:04.532Z,101112.16
2022-09-04T12:04:40.764Z,101115.69
2022-09-04T12:07:45.877Z,101111.34
2022-09-04T12:10:35.865Z,101118.03
2022-09-04T12:13:41.118Z,101113.56
2022-09-04T12:16:10.415Z,101118.38
2022-09-04T12:18:44.821Z,101116.31
2022-09-04T12:21:42.441Z,101115.03
2022-09-04T12:24:15.059Z,101113.63
2022-09-04T12:27:03.227Z,101120.94
2022-09-04T12:29:38.740Z,101129.78
2022-09-04T12:32:30.961Z,101131.69
2022-09-04T12:35:17.168Z,101125.44
2022-09-04T12:38:09.705Z,101120.50
2022-09-04T12:41:04.739Z,101124.16
2022-09-04T12:43:47.177Z,101123.56
2022-09-04T12:46:19.646Z,101127.25
2022-09-04T12:48:49.192Z,101120.88
2022-09-04T12:51:24.708Z,101125.09
2022-09-04T12:54:24.890Z,101114.25
2022-09-04T12:57:15.983Z,101116.34
2022-09-04T12:59:48.226Z,101124.19
2022-09-04T13:02:34.214Z,101118.63
2022-09-04T13:05:15.146Z,101114.66
2022-09-04T13:08:19.495Z,101119.28
2022-09-04T13:11:00.132Z,101115.78
2022-09-04T13:13:39.590Z,101125.38
2022-09-04T13:16:06.049Z,101122.06
2022-09-04T13:18:44.382Z,101126.97
2022-09-04T13:21:17.236Z,101128.06
2022-09-04T13:24:02.615Z,101136.22
2022-09-04T13:26:48.124Z,101134.91
2022-09-04T13:30:03.253Z,101136.84
2022-09-04T13:33:11.274Z,101144.47
2022-09-04T13:36:24.019Z,101144.28
2022-09-04T13:39:13.914Z,101136.63
2022-09-04T13:41:52.591Z,101131.81
2022-09-04T13:44:32.432Z,101136.91
2022-09-04T13:47:08.959Z,101144.06
2022-09-04T13:49:56.398Z,101136.38
2022-09-04T13:52:53.531Z,101133.50
2022-09-04T13:55:24.000Z,101137.84
2022-09-04T13:57:57.553Z,101137.72
2022-09-04T14:00:32.088Z,101138.22
2022-09-04T14:03:10.751Z,101131.84
2022-09-04T14:05:38.168Z,101134.41
2022-09-04T14:08:08.772Z,101142.09
2022-09-04T14:10:37.951Z,101139.06
2022-09-04T14:13:12.920Z,101144.66
2022-09-04T14:16:06.677Z,101139.09
2022-09-04T14:19:15.601Z,101139.56
2022-09-04T14:22:16.680Z,101132.72
2022-09-04T14:25:06.502Z,101136.59
2022-09-04T14:27:52.218Z,101138.84
2022-09-04T14:30:22.289Z,101139.47
2022-09-04T14:32:57.834Z,101129.56
2022-09-04T14:35:49.354Z,101133.38
2022-09-04T14:38:35.302Z,101135.47
2022-09-04T14:41:26.078Z,101135.81
2022-09-04T14:44:26.952Z,101126.53
2022-09-04T14:47:09.634Z,101128.91
2022-09-04T14:49:51.953Z,101132.28
2022-09-04T14:52:27.267Z,101136.75
2022-09-04T14:54:57.983Z,101129.72
2022-09-04T14:57:32.421Z,101131.50
2022-09-04T15:00:01.868Z,101133.38
2022-09-04T15:02:39.780Z,101135.47
2022-09-04T15:05:15.523Z,101125.09
2022-09-04T15:07:41.948Z,101125.41
2022-09-04T15:10:50.336Z,101130.50
2022-09-04T15:13:29.130Z,101128.91
2022-09-04T15:16:10.862Z,101137.06
2022-09-04T15:18:55.886Z,101133.38
2022-09-04T15:21:31.226Z,101135.63
2022-09-04T15:24:16.137Z,101137.38
2022-09-04T15:26:46.783Z,101137.88
2022-09-04T15:29:40.668Z,101134.00
2022-09-04T15:32:14.008Z,101135.59
2022-09-04T15:34:41.398Z,101134.97
2022-09-04T15:37:11.085Z,101136.84
2022-09-04T15:40:12.221Z,101144.50
2022-09-04T15:42:44.370Z,101137.00
2022-09-04T15:45:25.799Z,101145.78
2022-09-04T15:48:21.201Z,101132.69
2022-09-04T15:51:21.409Z,101137.31
2022-09-04T15:54:13.216Z,101135.41
2022-09-04T15:56:45.391Z,101132.03
2022-09-04T15:59:21.516Z,101132.19
2022-09-04T16:02:20.135Z,101137.28
2022-09-04T16:05:19.477Z,101138.56
2022-09-04T16:08:09.953Z,101139.38
2022-09-04T16:10:46.651Z,101128.66
2022-09-04T16:13:25.247Z,101129.63
2022-09-04T16:16:19.566Z,101132.16
2022-09-04T16:19:00.055Z,101134.91
2022-09-04T16:21:44.476Z,101139.19
2022-09-04T16:24:25.672Z,101140.78
2022-09-04T16:26:54.598Z,101144.47
2022-09-04T16:29:36.404Z,101147.63
2022-09-04T16:32:07.075Z,101143.19
2022-09-04T16:34:43.342Z,101141.72
2022-09-04T16:37:38.725Z,101142.66
2022-09-04T16:40:24.749Z,101144.41
2022-09-04T16:42:59.991Z,101142.78
2022-09-04T16:45:48.533Z,101146.59
2022-09-04T16:48:34.849Z,101150.91
2022-09-04T16:51:39.118Z,101148.47
2022-09-04T16:54:16.940Z,101147.84
2022-09-04T16:56:50.691Z,101146.69
2022-09-04T16:59:41.929Z,101146.19
2022-09-04T17:02:30.760Z,101150.00
2022-09-04T17:05:10.465Z,101148.88
2022-09-04T17:07:44.166Z,101152.69
2022-09-04T17:10:36.570Z,101159.50
2022-09-04T17:13:21.232Z,101158.03
2022-09-04T17:16:02.305Z,101159.81
2022-09-04T17:18:30.737Z,101156.25
2022-09-04T17:27:03.060Z,101161.69
2022-09-04T17:28:56.266Z,101162.72
2022-09-04T17:29:07.540Z,101157.25
2022-09-04T17:29:55.996Z,101160.50
2022-09-04T17:36:45.140Z,101162.72
2022-09-04T17:40:40.468Z,101157.06
2022-09-04T17:40:44.479Z,101162.13
2022-09-04T17:41:47.355Z,101161.13
2022-09-04T17:44:25.401Z,101157.25
2022-09-04T17:47:09.270Z,101163.31
2022-09-04T17:49:43.561Z,101161.50
2022-09-04T17:52:11.843Z,101159.25
2022-09-04T17:54:49.199Z,101161.22
2022-09-04T17:57:37.377Z,101159.06
2022-09-04T18:00:10.203Z,101161.72
2022-09-04T18:02:49.077Z,101157.47
2022-09-04T18:05:15.682Z,101158.81
2022-09-04T18:08:09.305Z,101164.91
2022-09-04T18:10:57.983Z,101161.63
2022-09-04T18:13:52.082Z,101171.22
2022-09-04T18:16:26.987Z,101169.41
2022-09-04T18:18:58.150Z,101174.56
2022-09-04T18:21:41.362Z,101166.25
2022-09-04T18:24:26.576Z,101164.44
2022-09-04T18:27:08.271Z,101186.41
2022-09-04T18:32:48.562Z,101183.06
2022-09-04T18:37:15.725Z,101188.44
2022-09-04T18:37:21.673Z,101189.91
2022-09-04T18:39:08.992Z,101196.38
2022-09-04T18:47:41.632Z,101203.19
2022-09-04T18:50:30.547Z,101203.84
2022-09-04T18:50:38.909Z,101198.31
2022-09-04T18:51:19.559Z,101194.03
2022-09-04T18:53:44.100Z,101198.88
2022-09-04T18:56:20.768Z,101197.84
2022-09-04T18:58:57.241Z,101212.28
2022-09-04T19:01:31.545Z,101211.66
2022-09-04T19:04:26.243Z,101206.91
2022-09-04T19:07:07.514Z,101217.53
2022-09-04T19:10:16.240Z,101218.53
2022-09-04T19:12:53.810Z,101217.34
2022-09-04T19:15:45.732Z,101220.66
2022-09-04T19:18:43.749Z,101219.22
2022-09-04T19:21:13.404Z,101220.06
2022-09-04T19:24:00.987Z,101228.44
2022-09-04T19:26:36.279Z,101226.81
2022-09-04T19:29:15.279Z,101229.03
2022-09-04T19:31:59.453Z,101226.25
2022-09-04T19:34:37.620Z,101227.50
2022-09-04T19:38:04.383Z,101225.53
2022-09-04T19:45:57.246Z,101230.13
2022-09-04T19:46:06.215Z,101227.34
2022-09-04T19:46:28.250Z,101230.38
2022-09-04T19:51:09.406Z,101226.88
2022-09-04T19:53:34.225Z,101232.31
2022-09-04T19:55:23.059Z,101231.22
2022-09-04T19:58:04.102Z,101232.53
2022-09-04T20:00:43.576Z,101228.16
2022-09-04T20:03:30.554Z,101235.25
2022-09-04T20:06:20.663Z,101239.41
2022-09-04T20:09:05.463Z,101245.28
2022-09-04T20:11:38.615Z,101243.66
2022-09-04T20:14:37.550Z,101247.88
2022-09-04T20:17:41.760Z,101244.72
2022-09-04T20:20:21.231Z,101250.47
2022-09-04T20:23:00.538Z,101254.28
2022-09-04T20:25:55.804Z,101244.59
2022-09-04T20:28:36.459Z,101247.16
2022-09-04T20:31:35.899Z,101245.19
2022-09-04T20:34:18.368Z,101259.19
2022-09-04T20:36:51.205Z,101249.09
2022-09-04T20:39:26.328Z,101251.66
2022-09-04T20:42:04.658Z,101250.09
2022-09-04T20:44:44.464Z,101248.88
2022-09-04T20:52:42.144Z,101247.81
2022-09-04T20:52:52.982Z,101254.81
2022-09-04T20:53:48.052Z,101250.84
2022-09-04T20:58:28.229Z,101255.00
2022-09-04T21:03:09.704Z,101251.41
2022-09-04T21:03:20.357Z,101249.47
2022-09-04T21:06:12.668Z,101260.56
2022-09-04T21:08:58.190Z,101261.84
2022-09-04T21:11:41.027Z,101260.22
2022-09-04T21:14:45.537Z,101265.22
2022-09-04T21:17:35.931Z,101268.09
2022-09-04T21:20:27.446Z,101260.81
2022-09-04T21:23:46.377Z,101275.09
2022-09-04T21:26:33.762Z,101271.53
2022-09-04T21:29:30.475Z,101274.81
2022-09-04T21:32:18.753Z,101278.13
2022-09-04T21:34:54.057Z,101274.09
2022-09-04T21:37:39.856Z,101270.44
2022-09-04T21:40:50.044Z,101274.97
2022-09-04T21:43:37.867Z,101273.00
2022-09-04T21:46:38.452Z,101273.50
2022-09-04T21:49:26.467Z,101277.59
2022-09-04T21:52:31.078Z,101275.25
2022-09-04T21:57:49.075Z,101283.00
2022-09-04T22:02:27.397Z,101277.78
2022-09-04T22:02:43.087Z,101278.22
2022-09-04T22:04:25.634Z,101283.19
2022-09-04T22:08:36.348Z,101286.81
2022-09-04T22:13:29.477Z,101290.56
2022-09-04T22:13:38.857Z,101281.25
2022-09-04T22:16:31.534Z,101284.09
2022-09-04T22:19:27.586Z,101286.59
2022-09-04T22:22:03.538Z,101293.97
2022-09-04T22:24:58.004Z,101289.53
2022-09-04T22:27:30.581Z,101283.44
2022-09-04T22:30:10.184Z,101296.50
2022-09-04T22:33:08.918Z,101283.56
2022-09-04T22:36:13.240Z,101292.91
2022-09-04T22:39:04.161Z,101289.31
2022-09-04T22:42:18.802Z,101294.22
2022-09-04T22:45:12.512Z,101297.53
2022-09-04T22:48:06.961Z,101295.94
2022-09-04T22:50:49.303Z,101300.41
2022-09-04T22:53:31.654Z,101299.25
2022-09-04T22:56:09.847Z,101298.00
2022-09-04T22:59:07.651Z,101298.41
2022-09-04T23:02:15.431Z,101299.25
2022-09-04T23:04:45.421Z,101301.66
2022-09-04T23:13:22.025Z,101298.47
2022-09-04T23:13:52.086Z,101302.97
2022-09-04T23:14:05.233Z,101303.78
2022-09-04T23:16:53.780Z,101296.09
2022-09-04T23:25:56.835Z,101296.53
2022-09-04T23:26:35.967Z,101296.19
2022-09-04T23:26:44.996Z,101297.41
2022-09-04T23:29:44.436Z,101296.25
2022-09-04T23:32:32.793Z,101300.69
2022-09-04T23:35:14.754Z,101299.91
2022-09-04T23:38:00.875Z,101304.41
2022-09-04T23:40:51.171Z,101304.41
2022-09-04T23:43:39.502Z,101300.41
2022-09-04T23:46:08.980Z,101301.19
2022-09-04T23:48:56.442Z,101303.25
2022-09-04T23:51:50.161Z,101297.22
2022-09-04T23:54:53.007Z,101296.84
2022-09-04T23:57:40.237Z,101298.47
